Time;durP1;ratioP1;P1;durP2;ratioP2;P2;SDS_P1;SDS_P2;PMS_P1;PMS_P2;Temp;Humidity;BMP_temperature;BMP_pressure;BME280_temperature;BME280_humidity;BME280_pressure;Samples;Min_cycle;Max_cycle;Signal;HPM_P1;HPM_P2
2021/06/18 00:00:53;;;;;;;6.88;4.50;;;19.90;99.90;;;;;;5052437;28;20063;-86
2021/06/18 00:03:22;;;;;;;6.28;4.60;;;20.00;99.90;;;;;;5048888;28;20025;-86
2021/06/18 00:05:48;;;;;;;5.80;4.05;;;19.90;99.90;;;;;;5046384;28;20486;-86
2021/06/18 00:08:13;;;;;;;4.90;4.22;;;19.90;99.90;;;;;;5043063;28;20032;-86
2021/06/18 00:10:39;;;;;;;3.72;3.40;;;19.90;99.90;;;;;;5045238;28;20040;-85
2021/06/18 00:13:05;;;;;;;7.13;4.28;;;20.00;99.90;;;;;;5049581;28;20025;-85
2021/06/18 00:15:31;;;;;;;5.28;4.32;;;20.00;99.90;;;;;;5043712;28;20033;-85
2021/06/18 00:17:56;;;;;;;6.00;4.50;;;20.00;99.90;;;;;;5051352;28;20027;-85
2021/06/18 00:20:22;;;;;;;7.50;4.45;;;20.00;99.90;;;;;;5046370;28;20025;-85
2021/06/18 00:22:48;;;;;;;9.75;4.38;;;20.00;99.90;;;;;;5051241;28;20036;-85
2021/06/18 00:25:14;;;;;;;6.82;4.22;;;19.90;99.90;;;;;;5050048;28;20021;-85
2021/06/18 00:27:40;;;;;;;4.50;3.50;;;19.90;99.90;;;;;;5051064;28;20531;-85
2021/06/18 00:30:08;;;;;;;5.95;3.97;;;19.90;99.90;;;;;;5043782;28;20042;-85
2021/06/18 00:32:34;;;;;;;5.95;4.22;;;19.90;99.90;;;;;;5050973;28;20497;-85
2021/06/18 00:35:00;;;;;;;5.90;4.20;;;19.80;99.90;;;;;;5043823;28;20029;-85
2021/06/18 00:37:25;;;;;;;7.63;3.72;;;19.80;99.90;;;;;;5050143;28;20036;-84
2021/06/18 00:39:51;;;;;;;5.50;3.78;;;19.90;99.90;;;;;;5039592;28;20032;-84
2021/06/18 00:42:17;;;;;;;6.97;4.43;;;19.90;99.90;;;;;;5047759;28;20029;-84
2021/06/18 00:44:43;;;;;;;6.65;4.15;;;19.90;99.90;;;;;;5045924;28;20478;-84
2021/06/18 00:47:19;;;;;;;6.88;4.75;;;19.80;99.90;;;;;;5045205;28;20048;-84
2021/06/18 00:49:46;;;;;;;9.23;4.72;;;19.70;99.90;;;;;;5044701;28;20033;-85
2021/06/18 00:52:12;;;;;;;15.27;5.60;;;19.70;99.90;;;;;;5045594;28;20092;-82
2021/06/18 00:54:39;;;;;;;5.68;5.00;;;19.70;99.90;;;;;;5044270;28;20117;-83
2021/06/18 00:57:06;;;;;;;8.50;5.35;;;19.70;99.90;;;;;;5043272;28;20069;-84
2021/06/18 00:59:32;;;;;;;8.10;4.93;;;19.70;99.90;;;;;;5043546;28;20075;-83
2021/06/18 01:01:57;;;;;;;5.82;4.60;;;19.60;99.90;;;;;;5041032;28;20021;-85
2021/06/18 01:04:26;;;;;;;6.47;3.33;;;19.70;99.90;;;;;;5045907;28;20036;-89
2021/06/18 01:06:58;;;;;;;6.30;2.97;;;19.60;99.90;;;;;;5051394;28;20029;-90
2021/06/18 01:09:28;;;;;;;20.60;2.33;;;19.50;99.90;;;;;;5074548;28;20041;-89
2021/06/18 01:12:00;;;;;;;18.35;3.17;;;19.40;99.90;;;;;;5051371;28;20029;-88
2021/06/18 01:14:58;;;;;;;5.43;3.60;;;19.30;99.90;;;;;;5041888;28;20108;-87
2021/06/18 01:17:41;;;;;;;6.03;3.78;;;19.20;99.90;;;;;;5037817;28;20095;-91
2021/06/18 01:20:31;;;;;;;9.20;4.75;;;19.20;99.90;;;;;;5046740;28;20125;-88
2021/06/18 01:22:58;;;;;;;9.80;5.43;;;19.20;99.90;;;;;;5040976;28;20028;-84
2021/06/18 01:25:49;;;;;;;7.22;4.97;;;19.30;99.90;;;;;;5041618;28;20131;-85
2021/06/18 01:28:46;;;;;;;6.28;4.75;;;19.40;99.90;;;;;;5047884;28;20025;-85
2021/06/18 01:31:17;;;;;;;6.38;4.57;;;19.40;99.90;;;;;;5033394;28;20087;-85
2021/06/18 01:33:46;;;;;;;6.65;4.57;;;19.30;99.90;;;;;;5043964;28;20071;-85
2021/06/18 01:36:16;;;;;;;7.13;4.70;;;19.30;99.90;;;;;;5047490;28;20044;-83
2021/06/18 01:38:45;;;;;;;7.22;5.47;;;19.30;99.90;;;;;;5042515;28;20440;-83
2021/06/18 01:41:16;;;;;;;7.35;5.00;;;19.40;99.90;;;;;;5050016;28;20056;-83
2021/06/18 01:43:47;;;;;;;5.97;4.93;;;19.50;99.90;;;;;;5043926;28;20025;-83
2021/06/18 01:46:15;;;;;;;7.20;4.70;;;19.50;99.90;;;;;;5047582;28;20052;-83
2021/06/18 01:48:46;;;;;;;14.27;4.55;;;19.50;99.90;;;;;;5044844;28;20116;-87
2021/06/18 01:51:14;;;;;;;10.60;5.80;;;19.40;99.90;;;;;;5044367;28;20183;-90
2021/06/18 01:53:44;;;;;;;15.13;4.25;;;19.40;99.90;;;;;;5048235;28;20025;-88
2021/06/18 01:56:15;;;;;;;6.03;3.00;;;19.30;99.90;;;;;;5048927;28;20081;-89
2021/06/18 01:58:46;;;;;;;6.85;2.70;;;19.20;99.90;;;;;;5049508;28;20041;-87
2021/06/18 02:01:15;;;;;;;7.05;2.42;;;19.10;99.90;;;;;;5050058;28;20013;-87
2021/06/18 02:03:43;;;;;;;11.38;2.30;;;19.10;99.90;;;;;;5048792;28;20116;-88
2021/06/18 02:06:10;;;;;;;18.08;2.55;;;19.10;99.90;;;;;;5049032;28;20013;-93
2021/06/18 02:08:37;;;;;;;9.00;2.50;;;19.10;99.90;;;;;;5041407;28;20176;-88
2021/06/18 02:11:04;;;;;;;10.10;2.60;;;19.10;99.90;;;;;;5036127;28;20032;-88
2021/06/18 02:13:31;;;;;;;13.13;2.63;;;19.10;99.90;;;;;;5044587;28;20025;-86
2021/06/18 02:15:59;;;;;;;12.88;2.60;;;19.20;99.90;;;;;;5036987;28;20021;-84
2021/06/18 02:18:26;;;;;;;10.25;2.58;;;19.20;99.90;;;;;;5044609;28;20037;-83
2021/06/18 02:20:55;;;;;;;12.32;2.58;;;19.20;99.90;;;;;;5035074;28;20498;-83
2021/06/18 02:23:25;;;;;;;13.73;2.58;;;19.30;99.90;;;;;;5047786;28;20447;-82
2021/06/18 02:25:50;;;;;;;11.23;2.97;;;19.20;99.90;;;;;;5036538;28;20018;-83
2021/06/18 02:28:20;;;;;;;12.48;2.47;;;19.20;99.90;;;;;;5044321;28;20048;-83
2021/06/18 02:30:46;;;;;;;7.07;2.75;;;19.10;99.90;;;;;;5036259;28;20536;-84
2021/06/18 02:33:12;;;;;;;7.15;2.50;;;19.20;99.90;;;;;;5044044;28;20030;-85
2021/06/18 02:35:44;;;;;;;9.70;3.05;;;19.30;99.90;;;;;;5049736;28;20025;-86
2021/06/18 02:38:12;;;;;;;7.50;2.28;;;19.40;99.90;;;;;;5047934;28;20059;-89
2021/06/18 02:40:38;;;;;;;7.95;2.53;;;19.40;99.90;;;;;;5042590;28;20112;-89
2021/06/18 02:43:05;;;;;;;6.15;2.58;;;19.50;99.90;;;;;;5046015;28;20049;-88
2021/06/18 02:45:31;;;;;;;6.68;2.58;;;19.50;99.90;;;;;;5049689;28;20078;-88
2021/06/18 02:48:18;;;;;;;9.63;2.58;;;19.60;99.90;;;;;;5048834;28;20032;-87
2021/06/18 02:51:00;;;;;;;8.80;2.75;;;19.60;99.90;;;;;;5042781;28;20295;-87
2021/06/18 02:53:40;;;;;;;6.55;2.63;;;19.50;99.90;;;;;;5047688;28;20025;-87
2021/06/18 02:56:14;;;;;;;9.38;3.03;;;19.60;99.90;;;;;;5049524;28;20178;-87
2021/06/18 02:58:47;;;;;;;9.38;3.47;;;19.60;99.90;;;;;;5043841;28;20045;-87
2021/06/18 03:01:16;;;;;;;13.23;3.80;;;19.50;99.90;;;;;;5045352;28;20037;-87
2021/06/18 03:03:44;;;;;;;17.42;3.85;;;19.50;99.90;;;;;;5047399;28;20037;-87
2021/06/18 03:06:14;;;;;;;13.38;4.38;;;19.50;99.90;;;;;;5049452;28;20029;-86
2021/06/18 03:08:45;;;;;;;15.48;3.63;;;19.50;99.90;;;;;;5047165;28;20057;-86
2021/06/18 03:11:11;;;;;;;11.45;3.00;;;19.50;99.90;;;;;;5049414;28;20236;-87
2021/06/18 03:13:41;;;;;;;16.85;3.38;;;19.40;99.90;;;;;;5048757;28;20036;-87
2021/06/18 03:16:09;;;;;;;10.80;2.95;;;19.40;99.90;;;;;;5041912;28;20047;-86
2021/06/18 03:18:37;;;;;;;11.63;2.58;;;19.50;99.90;;;;;;5047006;28;20102;-87
2021/06/18 03:21:04;;;;;;;8.95;2.25;;;19.50;99.90;;;;;;5048050;28;20399;-87
2021/06/18 03:23:32;;;;;;;7.88;2.03;;;19.50;99.90;;;;;;5044708;28;20067;-86
2021/06/18 03:26:02;;;;;;;4.97;1.88;;;19.50;99.90;;;;;;5039606;28;20033;-87
2021/06/18 03:28:28;;;;;;;4.35;1.50;;;19.40;99.90;;;;;;5051123;28;20033;-86
2021/06/18 03:30:55;;;;;;;3.17;1.08;;;19.40;99.90;;;;;;5038887;28;20025;-87
2021/06/18 03:33:23;;;;;;;2.55;1.10;;;19.30;99.90;;;;;;5052291;28;20441;-86
2021/06/18 03:35:49;;;;;;;3.70;0.90;;;19.30;99.90;;;;;;5052703;28;20473;-86
2021/06/18 03:38:16;;;;;;;3.28;1.20;;;19.30;99.90;;;;;;5050249;28;20021;-87
2021/06/18 03:40:42;;;;;;;3.30;1.00;;;19.30;99.90;;;;;;5045232;28;20028;-86
2021/06/18 03:43:09;;;;;;;2.85;1.45;;;19.30;99.90;;;;;;5051227;28;20017;-87
2021/06/18 03:45:39;;;;;;;3.60;1.00;;;19.40;99.90;;;;;;5076539;28;20455;-87
2021/06/18 03:48:05;;;;;;;3.63;1.50;;;19.30;99.90;;;;;;5051451;28;20057;-87
2021/06/18 03:50:34;;;;;;;3.83;1.65;;;19.30;99.90;;;;;;5043795;28;20485;-87
2021/06/18 03:53:01;;;;;;;6.80;3.60;;;19.30;99.90;;;;;;5051813;28;20400;-87
2021/06/18 03:55:28;;;;;;;9.63;4.97;;;19.20;99.90;;;;;;5043491;28;20589;-86
2021/06/18 03:57:54;;;;;;;10.18;3.78;;;19.10;99.90;;;;;;5044522;28;20044;-87
2021/06/18 04:00:21;;;;;;;11.05;4.03;;;19.20;99.90;;;;;;5044306;28;20020;-87
2021/06/18 04:02:49;;;;;;;7.43;3.88;;;19.10;99.90;;;;;;5038743;28;20129;-87
2021/06/18 04:05:19;;;;;;;7.70;3.60;;;19.20;99.90;;;;;;5050626;28;20052;-87
2021/06/18 04:07:47;;;;;;;6.95;3.22;;;19.20;99.90;;;;;;5051778;28;20020;-87
2021/06/18 04:10:17;;;;;;;8.40;2.55;;;19.20;99.90;;;;;;5050482;28;20024;-88
2021/06/18 04:12:44;;;;;;;6.07;2.00;;;19.10;99.90;;;;;;5050396;28;20432;-89
2021/06/18 04:15:11;;;;;;;5.10;1.75;;;19.10;99.90;;;;;;5050405;28;20073;-87
2021/06/18 04:17:41;;;;;;;8.27;1.75;;;19.00;99.90;;;;;;5051509;28;20053;-87
2021/06/18 04:20:09;;;;;;;7.97;1.88;;;18.80;99.90;;;;;;5050526;28;20048;-87
2021/06/18 04:22:35;;;;;;;7.55;1.63;;;18.70;99.90;;;;;;5051616;28;20021;-88
2021/06/18 04:25:03;;;;;;;5.35;1.67;;;18.70;99.90;;;;;;5043331;28;20040;-87
2021/06/18 04:27:29;;;;;;;4.97;1.63;;;18.70;99.90;;;;;;5051553;28;20074;-88
2021/06/18 04:29:54;;;;;;;7.68;2.22;;;18.70;99.90;;;;;;5042522;28;20041;-88
2021/06/18 04:32:21;;;;;;;4.80;1.88;;;18.70;99.90;;;;;;5036529;28;20009;-88
2021/06/18 04:34:47;;;;;;;5.13;1.77;;;18.70;99.90;;;;;;5046444;28;20029;-88
2021/06/18 04:37:13;;;;;;;2.70;1.80;;;18.60;99.90;;;;;;5048263;28;20029;-88
2021/06/18 04:39:39;;;;;;;6.72;2.00;;;18.60;99.90;;;;;;5047697;28;20041;-88
2021/06/18 04:42:05;;;;;;;4.43;2.08;;;18.60;99.90;;;;;;5045049;28;20116;-89
2021/06/18 04:44:31;;;;;;;2.75;2.00;;;18.60;99.90;;;;;;5050339;28;20400;-89
2021/06/18 04:46:57;;;;;;;5.97;2.25;;;18.50;99.90;;;;;;5052269;28;20025;-89
2021/06/18 04:49:23;;;;;;;6.70;4.18;;;18.50;99.90;;;;;;5048936;28;20409;-87
2021/06/18 04:51:50;;;;;;;3.78;2.60;;;18.50;99.90;;;;;;5042938;28;20028;-88
2021/06/18 04:54:16;;;;;;;3.30;1.80;;;18.60;99.90;;;;;;5079596;28;20064;-88
2021/06/18 04:56:41;;;;;;;4.53;1.90;;;18.50;99.90;;;;;;5040591;28;20037;-88
2021/06/18 04:59:08;;;;;;;6.00;1.88;;;18.50;99.90;;;;;;5048353;28;20036;-88
2021/06/18 05:01:34;;;;;;;3.72;1.88;;;18.50;99.90;;;;;;5039118;28;20032;-88
2021/06/18 05:03:59;;;;;;;4.70;1.80;;;18.50;99.90;;;;;;5046419;28;20025;-87
2021/06/18 05:06:25;;;;;;;5.85;1.35;;;18.50;99.90;;;;;;5036640;28;20516;-88
2021/06/18 05:08:52;;;;;;;6.68;1.55;;;18.50;99.90;;;;;;5043516;28;20049;-87
2021/06/18 05:11:23;;;;;;;6.82;1.60;;;18.40;99.90;;;;;;5048616;28;20489;-87
2021/06/18 05:13:49;;;;;;;2.88;1.33;;;18.50;99.90;;;;;;5044572;28;20029;-88
2021/06/18 05:16:15;;;;;;;3.88;1.25;;;18.40;99.90;;;;;;5048304;28;20028;-88
2021/06/18 05:18:41;;;;;;;9.88;1.50;;;18.50;99.90;;;;;;5044352;28;20037;-88
2021/06/18 05:21:07;;;;;;;4.07;1.50;;;18.50;99.90;;;;;;5079204;28;20021;-88
2021/06/18 05:23:32;;;;;;;3.80;1.05;;;18.50;99.90;;;;;;5046906;28;20186;-88
2021/06/18 05:25:59;;;;;;;3.13;1.15;;;18.60;99.90;;;;;;5046190;28;20151;-87
2021/06/18 05:28:24;;;;;;;7.88;1.38;;;18.50;99.90;;;;;;5049854;28;20174;-88
2021/06/18 05:30:50;;;;;;;5.70;0.98;;;18.60;99.90;;;;;;5078368;28;20357;-88
2021/06/18 05:33:16;;;;;;;7.53;1.38;;;18.60;99.90;;;;;;5050083;28;20524;-88
2021/06/18 05:35:44;;;;;;;8.15;1.50;;;18.60;99.90;;;;;;5045574;28;20113;-88
2021/06/18 05:38:10;;;;;;;5.72;0.98;;;18.60;99.90;;;;;;5050166;28;20393;-88
2021/06/18 05:40:38;;;;;;;3.47;1.63;;;18.60;99.90;;;;;;5044821;28;20032;-88
2021/06/18 05:43:04;;;;;;;3.42;1.10;;;18.70;99.90;;;;;;5082314;28;20539;-88
2021/06/18 05:45:33;;;;;;;4.60;0.80;;;18.80;99.90;;;;;;5044354;28;20025;-88
2021/06/18 05:47:58;;;;;;;1.92;0.65;;;19.00;99.90;;;;;;5049176;28;20017;-88
2021/06/18 05:50:24;;;;;;;2.28;0.88;;;18.90;99.90;;;;;;5037111;28;20067;-89
2021/06/18 05:52:50;;;;;;;8.15;1.00;;;18.90;99.90;;;;;;5035878;28;20025;-88
2021/06/18 05:55:15;;;;;;;3.40;0.80;;;18.90;99.90;;;;;;5048198;28;20029;-88
2021/06/18 05:57:42;;;;;;;6.22;0.88;;;18.90;99.90;;;;;;5048058;28;20045;-88
2021/06/18 06:00:08;;;;;;;2.83;0.60;;;18.90;99.90;;;;;;5042691;28;20029;-88
2021/06/18 06:02:34;;;;;;;1.20;0.60;;;19.00;99.90;;;;;;5047727;28;20463;-88
2021/06/18 06:05:00;;;;;;;5.32;0.60;;;19.10;99.90;;;;;;5043747;28;20101;-87
2021/06/18 06:07:26;;;;;;;2.05;0.70;;;19.20;99.90;;;;;;5032159;28;20116;-87
2021/06/18 06:09:51;;;;;;;4.75;0.65;;;19.10;99.90;;;;;;5043437;28;20500;-87
2021/06/18 06:12:17;;;;;;;1.40;0.65;;;19.10;99.90;;;;;;5043502;28;20090;-87
2021/06/18 06:14:43;;;;;;;1.98;0.57;;;19.00;99.90;;;;;;5041358;28;20068;-87
2021/06/18 06:17:08;;;;;;;3.15;0.90;;;19.00;99.90;;;;;;5040365;28;20389;-87
2021/06/18 06:19:34;;;;;;;2.65;0.77;;;18.90;99.90;;;;;;5042115;28;20375;-86
2021/06/18 06:22:00;;;;;;;4.05;1.00;;;18.90;99.90;;;;;;5051262;28;20029;-78
2021/06/18 06:24:26;;;;;;;0.90;0.55;;;18.80;99.90;;;;;;5038693;28;20500;-77
2021/06/18 06:26:52;;;;;;;1.60;0.80;;;18.90;99.90;;;;;;5048373;28;20032;-77
2021/06/18 06:29:17;;;;;;;1.42;0.82;;;18.80;99.90;;;;;;5041963;28;20512;-77
2021/06/18 06:31:44;;;;;;;2.55;0.90;;;18.90;99.90;;;;;;5046395;28;20104;-77
2021/06/18 06:34:11;;;;;;;2.03;0.80;;;18.90;99.90;;;;;;5041882;28;20422;-77
2021/06/18 06:36:37;;;;;;;2.15;0.90;;;18.90;99.90;;;;;;5039329;28;20342;-76
2021/06/18 06:39:03;;;;;;;4.20;1.67;;;18.80;99.90;;;;;;5049487;28;20650;-76
2021/06/18 06:41:29;;;;;;;6.25;1.70;;;18.80;99.90;;;;;;5036360;28;20108;-76
2021/06/18 06:43:55;;;;;;;3.33;1.48;;;18.80;99.90;;;;;;5038558;28;20104;-76
2021/06/18 06:46:21;;;;;;;4.88;1.30;;;18.80;99.90;;;;;;5040308;28;20552;-75
2021/06/18 06:48:48;;;;;;;2.38;1.17;;;18.70;99.90;;;;;;5043368;28;20049;-77
2021/06/18 06:51:14;;;;;;;3.28;1.25;;;18.70;99.90;;;;;;5037249;28;20033;-76
2021/06/18 06:53:39;;;;;;;2.53;1.23;;;18.70;99.90;;;;;;5043924;28;20037;-76
2021/06/18 06:56:05;;;;;;;3.30;1.20;;;18.70;99.90;;;;;;5039975;28;20029;-77
2021/06/18 06:58:31;;;;;;;3.72;1.05;;;18.70;99.90;;;;;;5042971;28;20483;-78
2021/06/18 07:00:57;;;;;;;4.07;1.40;;;18.60;99.90;;;;;;5044889;28;20401;-79
2021/06/18 07:03:22;;;;;;;4.03;1.40;;;18.60;99.90;;;;;;5052345;28;20025;-79
2021/06/18 07:05:48;;;;;;;4.82;1.30;;;18.60;99.90;;;;;;5043841;28;20056;-79
2021/06/18 07:08:20;;;;;;;3.47;1.42;;;18.70;99.90;;;;;;5052005;28;20029;-83
2021/06/18 07:10:47;;;;;;;6.28;1.33;;;18.70;99.90;;;;;;5042904;28;20025;-82
2021/06/18 07:13:13;;;;;;;6.45;1.30;;;18.70;99.90;;;;;;5052172;28;20029;-81
2021/06/18 07:15:39;;;;;;;8.55;1.67;;;18.80;99.90;;;;;;5041997;28;20560;-82
2021/06/18 07:18:05;;;;;;;4.82;1.70;;;18.90;99.90;;;;;;5044991;28;20029;-82
2021/06/18 07:20:31;;;;;;;6.85;1.92;;;18.90;99.90;;;;;;5041792;28;20052;-82
2021/06/18 07:22:57;;;;;;;8.10;2.20;;;19.00;99.90;;;;;;5049261;28;21428;-82
2021/06/18 07:25:22;;;;;;;5.97;2.35;;;19.00;99.90;;;;;;5034661;28;20478;-82
2021/06/18 07:27:48;;;;;;;4.85;1.98;;;19.10;99.90;;;;;;5048101;28;20017;-82
2021/06/18 07:30:14;;;;;;;11.48;2.53;;;19.10;99.90;;;;;;5047354;28;20507;-82
2021/06/18 07:32:40;;;;;;;6.13;2.08;;;19.00;99.90;;;;;;5050847;28;20511;-82
2021/06/18 07:35:06;;;;;;;7.93;2.55;;;19.00;99.90;;;;;;5040897;28;20112;-82
2021/06/18 07:37:32;;;;;;;9.07;3.50;;;18.90;99.90;;;;;;5045471;28;20056;-81
2021/06/18 07:39:57;;;;;;;8.25;3.28;;;19.00;99.90;;;;;;5050438;28;20048;-81
2021/06/18 07:42:23;;;;;;;13.38;3.58;;;19.10;99.90;;;;;;5052123;28;20432;-81
2021/06/18 07:44:49;;;;;;;14.27;3.22;;;19.10;99.90;;;;;;5043570;28;20049;-82
2021/06/18 07:47:15;;;;;;;10.57;3.40;;;19.30;99.90;;;;;;5052297;28;20025;-82
2021/06/18 07:49:40;;;;;;;12.15;3.42;;;19.40;99.90;;;;;;5042699;28;20178;-80
2021/06/18 07:52:06;;;;;;;9.77;3.38;;;19.30;99.90;;;;;;5051308;28;20021;-82
2021/06/18 07:54:32;;;;;;;10.32;3.70;;;19.40;99.90;;;;;;5042346;28;20116;-81
2021/06/18 07:56:57;;;;;;;13.95;3.72;;;19.40;99.90;;;;;;5049367;28;20057;-81
2021/06/18 07:59:23;;;;;;;12.02;4.47;;;19.40;99.90;;;;;;5048433;28;20025;-82
2021/06/18 08:01:49;;;;;;;12.90;3.75;;;19.60;99.90;;;;;;5045275;28;20097;-81
2021/06/18 08:04:16;;;;;;;10.45;3.47;;;19.60;99.90;;;;;;5050255;28;20025;-82
2021/06/18 08:06:41;;;;;;;7.53;2.97;;;19.60;99.90;;;;;;5043327;28;20032;-82
2021/06/18 08:09:07;;;;;;;7.90;3.92;;;19.70;99.90;;;;;;5049973;28;20029;-82
2021/06/18 08:11:33;;;;;;;11.38;4.10;;;19.60;99.90;;;;;;5041592;28;20063;-82
2021/06/18 08:13:59;;;;;;;10.10;3.40;;;19.60;99.90;;;;;;5050476;28;20029;-81
2021/06/18 08:16:24;;;;;;;8.65;4.03;;;19.40;99.90;;;;;;5051315;28;20048;-81
2021/06/18 08:18:50;;;;;;;11.10;3.67;;;19.60;99.90;;;;;;5050065;28;20416;-81
2021/06/18 08:21:16;;;;;;;12.15;3.40;;;19.80;99.90;;;;;;5039970;28;20027;-82
2021/06/18 08:23:42;;;;;;;7.88;3.50;;;20.00;99.90;;;;;;5048738;28;20417;-82
2021/06/18 08:26:08;;;;;;;12.27;4.28;;;19.80;99.90;;;;;;5039132;28;20029;-81
2021/06/18 08:28:35;;;;;;;10.43;4.28;;;19.60;99.90;;;;;;5048704;28;20431;-82
2021/06/18 08:31:04;;;;;;;12.82;3.63;;;19.50;99.90;;;;;;5038411;28;20032;-81
2021/06/18 08:33:34;;;;;;;10.48;3.58;;;19.40;99.90;;;;;;5045909;28;20192;-81
2021/06/18 08:36:01;;;;;;;8.45;3.47;;;19.30;99.90;;;;;;5037319;28;20022;-81
2021/06/18 08:38:34;;;;;;;9.70;3.63;;;19.20;99.90;;;;;;5046041;28;20469;-81
2021/06/18 08:41:02;;;;;;;10.10;3.53;;;19.10;99.90;;;;;;5051187;28;20017;-81
2021/06/18 08:43:29;;;;;;;10.48;4.22;;;19.20;99.90;;;;;;5047787;28;20119;-81
2021/06/18 08:45:55;;;;;;;10.05;3.90;;;19.30;99.90;;;;;;5043519;28;20029;-82
2021/06/18 08:48:21;;;;;;;10.65;4.32;;;19.50;99.90;;;;;;5059608;28;20032;-81
2021/06/18 08:50:47;;;;;;;5.75;3.50;;;19.60;99.90;;;;;;5050552;28;20074;-80
2021/06/18 08:53:14;;;;;;;9.15;4.05;;;19.60;99.90;;;;;;5049655;28;20024;-81
2021/06/18 08:55:39;;;;;;;8.50;4.20;;;19.60;99.90;;;;;;5042352;28;20029;-80
2021/06/18 08:58:05;;;;;;;12.57;4.25;;;19.50;99.90;;;;;;5046743;28;20045;-80
2021/06/18 09:00:32;;;;;;;14.48;4.47;;;19.50;99.90;;;;;;5042803;28;20021;-78
2021/06/18 09:02:58;;;;;;;14.75;4.60;;;19.50;99.90;;;;;;5049801;28;20029;-79
2021/06/18 09:05:24;;;;;;;8.80;4.18;;;19.50;99.90;;;;;;5041749;28;20425;-79
2021/06/18 09:08:00;;;;;;;11.10;4.47;;;19.70;99.90;;;;;;5049551;28;20507;-79
2021/06/18 09:10:36;;;;;;;12.88;4.25;;;20.10;99.90;;;;;;5040871;28;20111;-79
2021/06/18 09:13:07;;;;;;;11.93;3.80;;;20.60;99.90;;;;;;5049617;28;20071;-80
2021/06/18 09:15:33;;;;;;;9.90;4.07;;;20.70;99.90;;;;;;5040143;28;20259;-79
2021/06/18 09:18:29;;;;;;;11.48;3.35;;;20.90;99.90;;;;;;5049537;28;20250;-80
2021/06/18 09:21:16;;;;;;;9.07;3.58;;;20.80;99.90;;;;;;5036310;28;20385;-80
2021/06/18 09:23:51;;;;;;;8.68;3.58;;;20.80;99.90;;;;;;5047260;28;20033;-79
2021/06/18 09:26:28;;;;;;;12.48;3.50;;;20.50;99.90;;;;;;5038165;28;20013;-79
2021/06/18 09:29:05;;;;;;;6.97;3.42;;;20.50;99.90;;;;;;5047073;28;20040;-79
2021/06/18 09:31:37;;;;;;;9.32;3.60;;;20.50;99.90;;;;;;5037412;28;20023;-80
2021/06/18 09:34:04;;;;;;;10.18;3.58;;;20.60;99.90;;;;;;5076926;28;20041;-80
2021/06/18 09:36:31;;;;;;;10.30;3.20;;;20.70;99.90;;;;;;5036643;28;20017;-80
2021/06/18 09:38:57;;;;;;;10.90;3.95;;;21.00;99.90;;;;;;5045057;28;20036;-80
2021/06/18 09:41:38;;;;;;;6.95;2.90;;;21.00;99.90;;;;;;5049272;28;20021;-80
2021/06/18 09:44:05;;;;;;;9.65;3.00;;;20.90;99.90;;;;;;5041841;28;20043;-80
2021/06/18 09:46:53;;;;;;;9.80;3.20;;;21.00;99.90;;;;;;5048648;28;20045;-80
2021/06/18 09:49:30;;;;;;;9.57;3.08;;;20.90;99.90;;;;;;5043836;28;20040;-80
2021/06/18 09:52:17;;;;;;;10.10;3.22;;;20.90;99.90;;;;;;5049215;28;20079;-80
2021/06/18 09:54:49;;;;;;;7.57;3.17;;;21.10;99.90;;;;;;5048501;28;20021;-79
2021/06/18 09:57:16;;;;;;;8.05;3.20;;;21.10;99.90;;;;;;5048633;28;20622;-80
2021/06/18 09:59:57;;;;;;;7.90;3.53;;;21.00;99.90;;;;;;5048244;28;20068;-79
2021/06/18 10:02:35;;;;;;;6.65;3.30;;;20.80;99.90;;;;;;5049453;28;20013;-80
2021/06/18 10:05:04;;;;;;;10.80;4.13;;;20.60;99.90;;;;;;5039294;28;20100;-79
2021/06/18 10:07:31;;;;;;;20.95;7.43;;;20.60;99.90;;;;;;5049111;28;20025;-79
2021/06/18 10:09:59;;;;;;;24.70;7.70;;;20.60;99.90;;;;;;5049134;28;20458;-81
2021/06/18 10:12:27;;;;;;;17.27;4.70;;;20.60;99.90;;;;;;5048765;28;20017;-81
2021/06/18 10:14:55;;;;;;;25.02;7.35;;;20.70;99.90;;;;;;5049318;28;20052;-81
2021/06/18 10:17:20;;;;;;;11.88;3.30;;;21.10;99.90;;;;;;5048751;28;20013;-81
2021/06/18 10:19:46;;;;;;;14.27;3.90;;;21.40;99.90;;;;;;5048992;28;20567;-81
2021/06/18 10:22:15;;;;;;;19.38;6.95;;;21.40;99.90;;;;;;5048770;28;20025;-81
2021/06/18 10:24:54;;;;;;;12.02;3.60;;;21.50;99.90;;;;;;5047930;28;20029;-81
2021/06/18 10:27:32;;;;;;;9.82;3.25;;;21.40;99.90;;;;;;5046895;28;20052;-81
2021/06/18 10:29:58;;;;;;;11.20;3.13;;;21.80;99.90;;;;;;5029981;28;20410;-81
2021/06/18 10:32:26;;;;;;;16.00;4.07;;;21.90;99.90;;;;;;5034416;28;20021;-85
2021/06/18 10:34:54;;;;;;;11.00;4.03;;;21.60;99.90;;;;;;5042408;28;20025;-81
2021/06/18 10:37:22;;;;;;;14.13;4.72;;;21.30;99.90;;;;;;5044898;28;20385;-81
2021/06/18 10:39:53;;;;;;;15.80;4.20;;;21.10;99.90;;;;;;5053016;28;20571;-81
2021/06/18 10:42:19;;;;;;;18.33;4.47;;;21.00;99.90;;;;;;5052499;28;20013;-80
2021/06/18 10:44:48;;;;;;;14.05;4.05;;;21.00;99.90;;;;;;5052733;28;20374;-80
2021/06/18 10:47:29;;;;;;;11.88;3.80;;;20.90;99.90;;;;;;5052175;28;20100;-80
2021/06/18 10:49:56;;;;;;;11.43;4.03;;;20.50;99.90;;;;;;5043704;28;20036;-79
2021/06/18 10:52:24;;;;;;;9.73;3.65;;;20.50;99.90;;;;;;5052404;28;20021;-79
2021/06/18 10:54:54;;;;;;;12.90;4.05;;;20.70;99.90;;;;;;5048064;28;20029;-79
2021/06/18 10:57:27;;;;;;;11.25;4.00;;;20.80;99.90;;;;;;5045691;28;20037;-78
2021/06/18 10:59:54;;;;;;;10.93;4.38;;;20.90;99.90;;;;;;5038418;28;20033;-79
2021/06/18 11:02:23;;;;;;;13.30;4.13;;;20.90;99.90;;;;;;5045281;28;20021;-79
2021/06/18 11:04:52;;;;;;;17.35;5.65;;;20.60;99.90;;;;;;5043698;28;20200;-79
2021/06/18 11:07:41;;;;;;;11.85;4.00;;;20.50;99.90;;;;;;5051853;28;20035;-80
2021/06/18 11:10:08;;;;;;;14.35;4.20;;;20.60;99.90;;;;;;5039991;28;20128;-78
2021/06/18 11:13:04;;;;;;;12.25;4.00;;;20.70;99.90;;;;;;5051959;28;20020;-78
2021/06/18 11:15:30;;;;;;;14.23;4.15;;;20.80;99.90;;;;;;5037454;28;20124;-78
2021/06/18 11:17:59;;;;;;;13.57;5.05;;;20.90;99.90;;;;;;5042825;28;20557;-65
2021/06/18 11:20:34;;;;;;;14.27;4.63;;;20.90;99.90;;;;;;5046258;28;20017;-79
2021/06/18 11:23:13;;;;;;;17.42;4.22;;;20.70;99.90;;;;;;5051640;28;20211;-79
2021/06/18 11:28:20;;;;;;;16.38;5.00;;;20.70;99.90;;;;;;5051490;28;20401;-79
2021/06/18 11:30:58;;;;;;;14.73;4.60;;;20.90;99.90;;;;;;5042940;28;20638;-79
2021/06/18 11:33:44;;;;;;;9.15;4.55;;;20.70;99.90;;;;;;5047589;28;20029;-79
2021/06/18 11:36:17;;;;;;;12.25;3.70;;;20.90;99.90;;;;;;5034601;28;20132;-79
2021/06/18 11:38:44;;;;;;;13.73;4.35;;;21.20;99.90;;;;;;5049998;28;20627;-80
2021/06/18 11:41:11;;;;;;;16.42;4.72;;;20.90;99.90;;;;;;5047225;28;20501;-80
2021/06/18 11:43:40;;;;;;;15.48;4.57;;;20.80;99.90;;;;;;5041016;28;20496;-80
2021/06/18 11:46:07;;;;;;;15.88;3.97;;;20.70;99.90;;;;;;5038995;28;20021;-81
2021/06/18 11:48:34;;;;;;;11.02;4.45;;;20.80;99.90;;;;;;5046946;28;20049;-80
2021/06/18 11:50:59;;;;;;;14.80;3.55;;;21.00;99.90;;;;;;5050689;28;20033;-81
2021/06/18 11:53:39;;;;;;;12.02;3.95;;;21.20;99.90;;;;;;5046637;28;20096;-78
2021/06/18 11:56:07;;;;;;;12.70;4.20;;;21.50;99.90;;;;;;5037752;28;20376;-79
2021/06/18 11:58:35;;;;;;;11.25;3.95;;;21.70;99.90;;;;;;5046039;28;20073;-79
2021/06/18 12:01:16;;;;;;;7.70;2.50;;;21.90;99.90;;;;;;5051799;28;20068;-79
2021/06/18 12:03:47;;;;;;;7.03;2.60;;;21.80;99.90;;;;;;5039671;28;20084;-80
2021/06/18 12:06:20;;;;;;;6.47;2.95;;;21.90;99.90;;;;;;5047290;28;20032;-78
2021/06/18 12:09:06;;;;;;;5.27;2.50;;;21.80;99.90;;;;;;5039431;28;20045;-79
2021/06/18 12:11:44;;;;;;;10.60;3.47;;;21.90;99.90;;;;;;5050093;28;20025;-79
2021/06/18 12:14:12;;;;;;;6.28;3.05;;;21.90;99.90;;;;;;5043481;28;20072;-79
2021/06/18 12:16:41;;;;;;;7.05;2.80;;;21.90;99.90;;;;;;5050458;28;20021;-79
2021/06/18 12:19:23;;;;;;;8.05;2.67;;;22.00;99.90;;;;;;5043291;28;20014;-79
2021/06/18 12:22:11;;;;;;;10.30;3.42;;;22.00;99.90;;;;;;5047500;28;20037;-79
2021/06/18 12:24:38;;;;;;;12.77;3.10;;;22.00;99.90;;;;;;5048496;28;20243;-79
2021/06/18 12:27:10;;;;;;;11.02;3.10;;;21.90;99.90;;;;;;5048612;28;20452;-79
2021/06/18 12:29:41;;;;;;;7.75;3.17;;;21.90;99.90;;;;;;5042876;28;20037;-79
2021/06/18 12:32:09;;;;;;;11.10;2.63;;;21.80;99.90;;;;;;5050901;28;20320;-78
2021/06/18 12:34:35;;;;;;;17.00;3.63;;;21.90;99.90;;;;;;5048244;28;20041;-79
2021/06/18 12:37:05;;;;;;;9.65;3.00;;;21.70;99.90;;;;;;5046357;28;20504;-81
2021/06/18 12:39:47;;;;;;;13.93;3.10;;;21.60;99.90;;;;;;5048619;28;20361;-79
2021/06/18 12:42:40;;;;;;;10.73;3.17;;;21.70;99.90;;;;;;5031396;28;20041;-79
2021/06/18 12:45:11;;;;;;;8.77;2.97;;;21.90;99.90;;;;;;5039254;28;20041;-79
2021/06/18 12:47:38;;;;;;;8.70;3.33;;;22.10;99.90;;;;;;5047929;28;20021;-79
2021/06/18 12:50:22;;;;;;;10.75;3.17;;;22.30;99.90;;;;;;5076483;28;20042;-79
2021/06/18 12:52:51;;;;;;;12.93;3.35;;;22.60;99.90;;;;;;5047465;28;20108;-79
2021/06/18 12:55:25;;;;;;;14.05;3.70;;;22.40;99.90;;;;;;5042350;28;20045;-81